KRT weather

Khartoum International Airport
Khartoum, Khartoum State, Sudan

Public forecast

Using degrees Celsius for public forecast. Weather courtesy of forecast.io.

METAR (pilot weather report)

Retrieved 2019/05/27 00:30 UTC (0 seconds ago):

HSSS 270030Z 02003KT CAVOK 33/11 Q1006 NOSIG

TAF (pilot weather forecast)

Forecast is more than 12 hours old.

Retrieved 2019/05/26 00:00 UTC (1 day ago):

TAF HSSS 262300Z 2700/2806 0206G15KT CAVOK TEMPO 2702/2706 VRB03KT 4000 HZ TEMPO 2711/2716 VRB03KT 6000 FEW040 FEW140